Marche, Arkansas
Current Conditions -  °F | °C
As of 10:53 PM on Wednesday 17 Dec 2014 (Local Time) from KLIT Reporting Station
Overcast Overcast  
Wind Chill: 33°   Ceiling: 7000
Heat Index: 38°   Visibility: 10mi
Dew Point: 33°   Wind: 6mph
Humidity: 83%   Direction: 10°N
Pressure: 30.28"   Gusts: NA
Location:  34.757°N, 92.1411°W
Report Text: KLIT 180453Z 01005KT 10SM OVC070 03/01 A3028 RMK AO2 RAE47 SLP259 P0003 T00330006
Loading
Personal Weather Stations






























Interactive Weather Map New forecast layout! Learn more

10-Day Weather Forecast

Advertisements
Track Severe Weather on mobile